Airfield :
LOGIN :

Register | Disclaimer

   EN    FR    IT 

 










Legend :    VFR   Marginal VFR   IFR   Intensive IFR   Very Intensive IFR
Visi :
Ceiling :
>= 8 km
>= 3000ft
5 to 8 km
1000 to 3000 ft
1500m to 5 km
500 to 1000 ft
800 to 1500m
200 to 500 ft
< 800m
< 200 ft
Symbols :   Thunderstorms  Fog  Heavy snow  Heavy precipitations  Wind > 20 kt
SIGMETs :     Misc.  Thunderstorms  Icing  Turbulence  Mountain Waves  Volcanic Ashes







- Airport Elevation : 26 ft
- IATA code : BIA
- Download approach charts


LFKB - Bastia

CURRENT METAR :
  • 300030Z AUTO 27004KT 9999 NSC 12/04 Q1024 NOSIG

EXPIRED METARs :
  • 300000Z AUTO VRB03KT 9999 NSC 13/04 Q1024 NOSIG
  • 292330Z AUTO 25010KT 9999 NSC 14/05 Q1024 NOSIG
  • 292300Z AUTO 25012KT 9999 NSC 14/06 Q1024 NOSIG
  • 292230Z AUTO 25010KT 9999 NSC 14/06 Q1024 NOSIG

TAF TAF LFKB
Valid from the 29 at 21:00 until the 30 at 21:00 UTC


292000Z 2921/3021 24004KT CAVOK
BECMG 3008/3010 04006KT TX19/3013Z TN06/3005Z
ATIS : +33 4 95 59 19 40
No reported NOTAMs for that airfield.



MET'MAP, your aeronautical weather chart ! - Copyright ORBIFLY December 2007 - Disclaimer

ORBIFLY MET'MAP TEAM :

Programming & Development : Alexandra Zaïnal
Concept & Development : Baudouin d'Aumeries
Co-Development & Prog : Marc-Olivier Méhu
Technical & hardware support : Manuel Goepfert

Contact : metmap@orbifly.com




SOURCES & CREDITS :

   NOAA